Flight Track Log - Related Links

Times and Time Zones

All times are in EDT time to prevent confusion due to time zone crossing. See the EJA951 flight status page for this flight to view local times or setup timezone preferences in your user account.

Time Position Orientation Groundspeed Altitude Reporting Facility
EDT Latitude Longitude Course Direction KTS MPH feet Rate Location/Type
Tue 02:47:47 PM 30.0442 -95.6064 271° West 214 246 1,900  Level Houston Center
Tue 02:48:48 PM 30.1000 -95.6189 349° North 214 246 2,600 1,648 Climbing Houston Center
Tue 02:49:18 PM 30.1203 -95.6461 311° West 223 257 4,400 3,326 Climbing Houston Center
Tue 02:50:20 PM 30.1231 -95.7208 272° West 230 265 7,700 2,952 Climbing Houston Center
Tue 02:51:22 PM 30.1139 -95.8042 263° West 260 299 10,500 2,032 Climbing Houston Center
Tue 02:52:24 PM 30.0753 -95.8928 243° Southwest 314 361 11,900 726 Climbing Houston Center
Tue 02:53:26 PM 29.9928 -95.9561 214° Southwest 373 429 12,000 48 Climbing Houston Center
Tue 02:54:28 PM 29.8964 -95.9811 193° South 361 415 12,000  Level Houston Center
Tue 02:55:30 PM 29.8608 -96.1092 252° West 372 428 12,000 -48 Level Houston Center
Tue 02:56:32 PM 29.8933 -96.2369 286° West 410 472 11,900 -48 Descending Houston Center
Tue 02:57:34 PM 29.9264 -96.3683 286° West 427 491 11,900  Level Houston Center
Tue 02:58:36 PM 29.9781 -96.4822 298° West 411 473 11,900  Level Houston Center
Tue 02:59:38 PM 30.0081 -96.6089 285° West 412 474 11,900  Level Houston Center
Tue 03:00:40 PM 30.0436 -96.7656 285° West 421 484 11,900 48 Level Houston Center
Tue 03:01:42 PM 30.0769 -96.8917 287° West 417 480 12,000 -435 Climbing Houston Center
Tue 03:02:44 PM 30.1278 -96.9919 300° West 362 417 11,000 -1,210 Descending Houston Center
Tue 03:03:46 PM 30.1742 -97.0811 301° West 325 374 9,500 -1,500 Descending Houston Center
Tue 03:04:48 PM 30.2172 -97.1650 301° West 305 351 7,900 -1,500 Descending Houston Center
Tue 03:05:50 PM 30.2589 -97.2458 301° West 292 336 6,400 -1,258 Descending Houston Center
Tue 03:06:52 PM 30.2886 -97.3372 291° West 303 349 5,300 -1,161 Descending Houston Center
Tue 03:07:54 PM 30.3119 -97.4406 285° West 285 328 4,000 -629 Descending Houston Center
Tue 03:08:56 PM 30.3339 -97.5239 287° West 274 315 4,000 -387 Level Houston Center
Tue 03:09:58 PM 30.3333 -97.5881 269° West 208 239 3,200 -968 Descending Houston Center
Tue 03:11:00 PM 30.3083 -97.6444 243° Southwest 205 236 2,000 -726 Descending Houston Center
Tue 03:12:02 PM 30.2650 -97.6586 196° South 191 220 1,700 -537 Descending Houston Center
Tue 03:13:03 PM 30.2225 -97.6581 179° South 166 191 900 -439 Descending Houston Center
Tue 03:14:05 PM 30.1844 -97.6550 176° South 161 185 800 -97 Descending Houston Center

Login

Don't have an account? Register now (free) for customized features, flight alerts, and more!